createdAt,value
2023-05-17T21:50:38.586Z,99.60
2023-05-17T21:53:12.469Z,99.10
2023-05-17T21:55:56.901Z,99.90
2023-05-17T21:58:20.201Z,99.40
2023-05-17T22:00:53.964Z,99.20
2023-05-17T22:03:27.429Z,90.00
2023-05-17T22:05:58.555Z,90.00
2023-05-17T22:08:29.895Z,89.60
2023-05-17T22:11:02.040Z,90.20
2023-05-17T22:13:35.183Z,90.00
2023-05-17T22:16:10.263Z,89.90
2023-05-17T22:18:44.308Z,89.80
2023-05-17T22:21:18.464Z,90.10
2023-05-17T22:23:51.553Z,90.10
2023-05-17T22:26:26.364Z,90.20
2023-05-17T22:28:58.138Z,90.60
2023-05-17T22:31:30.776Z,90.20
2023-05-17T22:34:02.762Z,90.20
2023-05-17T22:36:39.249Z,90.30
2023-05-17T22:39:13.153Z,90.40
2023-05-17T22:41:45.426Z,90.50
2023-05-17T22:44:20.092Z,90.50
2023-05-17T22:46:54.167Z,90.70
2023-05-17T22:49:30.539Z,90.80
2023-05-17T22:52:05.572Z,90.90
2023-05-17T22:54:39.615Z,90.90
2023-05-17T22:57:10.701Z,90.90
2023-05-17T22:59:44.935Z,91.00
2023-05-17T23:02:17.584Z,91.00
2023-05-17T23:04:51.259Z,90.90
2023-05-17T23:07:25.122Z,90.80
2023-05-17T23:09:56.240Z,91.00
2023-05-17T23:12:30.334Z,90.90
2023-05-17T23:15:02.971Z,90.90
2023-05-17T23:17:39.349Z,91.00
2023-05-17T23:20:14.135Z,91.10
2023-05-17T23:22:48.074Z,91.20
2023-05-17T23:25:19.172Z,91.10
2023-05-17T23:27:54.899Z,91.30
2023-05-17T23:30:28.242Z,91.20
2023-05-17T23:33:01.221Z,91.20
2023-05-17T23:35:35.021Z,91.20
2023-05-17T23:38:09.121Z,91.20
2023-05-17T23:40:44.203Z,91.30
2023-05-17T23:43:17.477Z,91.30
2023-05-17T23:45:48.531Z,91.10
2023-05-17T23:48:22.763Z,91.20
2023-05-17T23:50:59.595Z,91.10
2023-05-17T23:53:31.696Z,91.10
2023-05-17T23:56:07.716Z,91.00
2023-05-17T23:58:39.262Z,90.90
